TimeCST,TemperatureF,Dew PointF,Humidity,Sea Level PressureIn,VisibilityMPH,Wind Direction,Wind SpeedMPH,Gust SpeedMPH,PrecipitationIn,Events,Conditions,WindDirDegrees,DateUTC
12:53 AM,17.1,7.0,65,30.22,10.0,West,9.2,-,N/A,,Scattered Clouds,260,2014-01-07 06:53:00
1:53 AM,19.0,7.0,59,30.17,10.0,WSW,10.4,-,N/A,,Clear,250,2014-01-07 07:53:00
2:53 AM,21.9,9.0,58,30.15,10.0,WSW,11.5,-,N/A,,Clear,250,2014-01-07 08:53:00
3:53 AM,19.9,8.1,60,30.15,10.0,West,13.8,-,N/A,,Clear,260,2014-01-07 09:53:00
4:53 AM,17.1,8.1,68,30.14,10.0,WSW,12.7,-,N/A,,Clear,250,2014-01-07 10:53:00
5:53 AM,18.0,8.1,65,30.14,10.0,West,17.3,-,N/A,,Clear,270,2014-01-07 11:53:00
6:53 AM,16.0,7.0,68,30.16,10.0,West,16.1,-,N/A,,Clear,270,2014-01-07 12:53:00
7:53 AM,15.1,7.0,70,30.17,10.0,West,13.8,-,N/A,,Clear,260,2014-01-07 13:53:00
8:53 AM,18.0,9.0,68,30.16,10.0,West,15.0,-,N/A,,Clear,260,2014-01-07 14:53:00
9:53 AM,25.0,12.0,58,30.16,10.0,West,12.7,-,N/A,,Clear,270,2014-01-07 15:53:00
10:53 AM,32.0,16.0,52,30.16,10.0,West,3.5,-,N/A,,Unknown,260,2014-01-07 16:53:00
11:53 AM,41.0,19.0,41,30.12,4.0,WSW,6.9,-,N/A,,Haze,250,2014-01-07 17:53:00
12:53 PM,-9999,-9999,N/A,30.00,10.0,North,-9999.0,-,N/A,,Clear,0,2014-01-07 18:53:00
1:53 PM,48.9,16.0,27,30.04,10.0,WNW,3.5,-,N/A,,Clear,290,2014-01-07 19:53:00
2:53 PM,50.0,15.1,25,30.02,10.0,Calm,Calm,-,N/A,,Clear,0,2014-01-07 20:53:00
3:53 PM,46.9,19.0,33,30.04,10.0,East,4.6,-,N/A,,Clear,90,2014-01-07 21:53:00
4:53 PM,43.0,19.9,40,30.05,10.0,ESE,8.1,-,N/A,,Clear,110,2014-01-07 22:53:00
5:53 PM,37.9,17.1,43,30.07,10.0,East,4.6,-,N/A,,Clear,80,2014-01-07 23:53:00
6:53 PM,37.0,17.1,44,30.09,10.0,ENE,5.8,-,N/A,,Partly Cloudy,60,2014-01-08 00:53:00
7:53 PM,35.1,18.0,50,30.11,10.0,East,5.8,-,N/A,,Clear,80,2014-01-08 01:53:00
8:53 PM,34.0,18.0,52,30.12,10.0,ENE,8.1,-,N/A,,Partly Cloudy,60,2014-01-08 02:53:00
9:53 PM,34.0,17.1,50,30.12,10.0,East,8.1,-,N/A,,Mostly Cloudy,80,2014-01-08 03:53:00
10:53 PM,33.1,19.0,56,30.13,10.0,ENE,13.8,-,N/A,,Partly Cloudy,70,2014-01-08 04:53:00
11:53 PM,30.9,19.0,61,30.13,10.0,East,12.7,-,N/A,,Overcast,80,2014-01-08 05:53:00